ESOK/KSD METAR and TAF weather

Enter ICAO airport designator
Station Type Date Time Source
ESOK METAR 2020/08/11 18:20 UTC NOAA

ESOK 111820Z AUTO 24003KT 9999 R03///// R21/P1500N NCD 19/14 Q1025


Station Type Date Time Source
ESOK Decoded METAR 2020/08/11 18:20 UTC NOAA

Karlstad , Sweden (ESOK) 59-26-41N 013-20-15E
Aug 11, 2020 - 02:20 PM EDT / 2020.08.11 1820 UTC
Wind: from the WSW (240 degrees) at 3 MPH (3 KT):0
Visibility: greater than 7 mile(s):0
Temperature: 66 F (19 C)
Dew Point: 57 F (14 C)
Relative Humidity: 72%
Pressure (altimeter): 30.27 in. Hg (1025 hPa)
ob: ESOK 111820Z AUTO 24003KT 9999 R03///// R21/P1500N NCD 19/14 Q1025
cycle: 18

Station Type Date Time Source
ESOK TAF 2017/05/22 06:33 UTC NOAA

TAF ESOK 220530Z 2206/2224 28006KT CAVOK

Example: see airport list